sensor_id;sensor_type;location;lat;lon;timestamp;temperature;humidity
2855;DHT22;1435;49.472;10.940;2022-08-11T00:01:23;19.40;64.00
2855;DHT22;1435;49.472;10.940;2022-08-11T00:06:27;19.30;64.20
2855;DHT22;1435;49.472;10.940;2022-08-11T00:11:36;19.30;65.20
2855;DHT22;1435;49.472;10.940;2022-08-11T00:16:38;19.20;64.60
2855;DHT22;1435;49.472;10.940;2022-08-11T00:21:42;19.10;65.20
2855;DHT22;1435;49.472;10.940;2022-08-11T00:26:48;19.00;65.50
2855;DHT22;1435;49.472;10.940;2022-08-11T00:31:51;18.90;65.90
2855;DHT22;1435;49.472;10.940;2022-08-11T00:37:06;18.80;66.20
2855;DHT22;1435;49.472;10.940;2022-08-11T00:42:25;18.70;67.90
2855;DHT22;1435;49.472;10.940;2022-08-11T00:47:40;18.60;66.90
2855;DHT22;1435;49.472;10.940;2022-08-11T00:52:54;18.60;67.20
2855;DHT22;1435;49.472;10.940;2022-08-11T00:58:40;18.50;67.40
2855;DHT22;1435;49.472;10.940;2022-08-11T01:09:38;18.40;68.00
2855;DHT22;1435;49.472;10.940;2022-08-11T01:15:18;18.30;68.40
2855;DHT22;1435;49.472;10.940;2022-08-11T01:20:58;18.20;68.50
2855;DHT22;1435;49.472;10.940;2022-08-11T01:26:34;18.10;69.00
2855;DHT22;1435;49.472;10.940;2022-08-11T01:32:31;18.10;69.50
2855;DHT22;1435;49.472;10.940;2022-08-11T01:38:23;18.10;69.40
2855;DHT22;1435;49.472;10.940;2022-08-11T01:49:31;18.00;70.40
2855;DHT22;1435;49.472;10.940;2022-08-11T01:54:42;17.90;70.60
2855;DHT22;1435;49.472;10.940;2022-08-11T01:59:48;17.90;71.00
2855;DHT22;1435;49.472;10.940;2022-08-11T02:04:55;17.80;71.60
2855;DHT22;1435;49.472;10.940;2022-08-11T02:10:17;17.70;71.50
2855;DHT22;1435;49.472;10.940;2022-08-11T02:15:44;17.70;72.10
2855;DHT22;1435;49.472;10.940;2022-08-11T02:20:50;17.70;72.60
2855;DHT22;1435;49.472;10.940;2022-08-11T02:26:19;17.60;72.50
2855;DHT22;1435;49.472;10.940;2022-08-11T02:31:28;17.50;73.10
2855;DHT22;1435;49.472;10.940;2022-08-11T02:36:54;17.50;73.40
2855;DHT22;1435;49.472;10.940;2022-08-11T02:42:15;17.40;73.50
2855;DHT22;1435;49.472;10.940;2022-08-11T02:47:34;17.30;73.70
2855;DHT22;1435;49.472;10.940;2022-08-11T02:52:44;17.20;74.20
2855;DHT22;1435;49.472;10.940;2022-08-11T02:57:55;17.10;74.90
2855;DHT22;1435;49.472;10.940;2022-08-11T03:03:10;17.10;75.50
2855;DHT22;1435;49.472;10.940;2022-08-11T03:08:24;17.00;75.70
2855;DHT22;1435;49.472;10.940;2022-08-11T03:13:33;17.10;76.50
2855;DHT22;1435;49.472;10.940;2022-08-11T03:19:02;17.00;76.70
2855;DHT22;1435;49.472;10.940;2022-08-11T03:24:14;17.00;77.30
2855;DHT22;1435;49.472;10.940;2022-08-11T03:29:26;17.00;77.50
2855;DHT22;1435;49.472;10.940;2022-08-11T03:34:32;16.90;77.90
2855;DHT22;1435;49.472;10.940;2022-08-11T03:39:47;16.90;78.30
2855;DHT22;1435;49.472;10.940;2022-08-11T03:45:02;16.90;79.10
2855;DHT22;1435;49.472;10.940;2022-08-11T03:50:15;16.80;79.10
2855;DHT22;1435;49.472;10.940;2022-08-11T03:55:31;16.80;79.70
2855;DHT22;1435;49.472;10.940;2022-08-11T04:01:16;16.80;80.10
2855;DHT22;1435;49.472;10.940;2022-08-11T04:12:17;16.60;81.50
2855;DHT22;1435;49.472;10.940;2022-08-11T04:17:49;16.60;82.20
2855;DHT22;1435;49.472;10.940;2022-08-11T04:28:53;16.50;83.60
2855;DHT22;1435;49.472;10.940;2022-08-11T04:34:23;16.40;84.50
2855;DHT22;1435;49.472;10.940;2022-08-11T04:39:42;16.40;85.70
2855;DHT22;1435;49.472;10.940;2022-08-11T04:50:36;16.40;88.20
2855;DHT22;1435;49.472;10.940;2022-08-11T04:56:07;16.40;89.40
2855;DHT22;1435;49.472;10.940;2022-08-11T05:01:34;16.40;90.20
2855;DHT22;1435;49.472;10.940;2022-08-11T05:07:10;16.50;90.90
2855;DHT22;1435;49.472;10.940;2022-08-11T05:12:34;16.50;91.90
2855;DHT22;1435;49.472;10.940;2022-08-11T05:17:39;16.60;92.80
2855;DHT22;1435;49.472;10.940;2022-08-11T05:23:05;16.70;93.70
2855;DHT22;1435;49.472;10.940;2022-08-11T05:28:30;16.80;94.00
2855;DHT22;1435;49.472;10.940;2022-08-11T05:33:51;16.90;94.00
2855;DHT22;1435;49.472;10.940;2022-08-11T05:39:15;16.90;93.70
2855;DHT22;1435;49.472;10.940;2022-08-11T05:44:37;17.00;93.10
2855;DHT22;1435;49.472;10.940;2022-08-11T05:49:57;17.10;92.70
2855;DHT22;1435;49.472;10.940;2022-08-11T05:55:18;17.20;92.60
2855;DHT22;1435;49.472;10.940;2022-08-11T06:00:41;17.20;92.40
2855;DHT22;1435;49.472;10.940;2022-08-11T06:05:43;17.40;92.20
2855;DHT22;1435;49.472;10.940;2022-08-11T06:10:46;17.50;92.20
2855;DHT22;1435;49.472;10.940;2022-08-11T06:15:50;17.60;92.30
2855;DHT22;1435;49.472;10.940;2022-08-11T06:20:53;17.70;92.10
2855;DHT22;1435;49.472;10.940;2022-08-11T06:25:58;17.80;91.90
2855;DHT22;1435;49.472;10.940;2022-08-11T06:31:01;17.90;91.70
2855;DHT22;1435;49.472;10.940;2022-08-11T06:36:15;18.10;91.40
2855;DHT22;1435;49.472;10.940;2022-08-11T06:41:25;18.30;91.20
2855;DHT22;1435;49.472;10.940;2022-08-11T06:46:33;18.50;90.70
2855;DHT22;1435;49.472;10.940;2022-08-11T06:51:36;18.60;90.10
2855;DHT22;1435;49.472;10.940;2022-08-11T06:56:41;18.80;88.40
2855;DHT22;1435;49.472;10.940;2022-08-11T07:02:06;19.00;87.30
2855;DHT22;1435;49.472;10.940;2022-08-11T07:13:22;19.50;86.60
2855;DHT22;1435;49.472;10.940;2022-08-11T07:18:42;19.70;85.30
2855;DHT22;1435;49.472;10.940;2022-08-11T07:24:10;19.90;84.10
2855;DHT22;1435;49.472;10.940;2022-08-11T07:29:31;20.10;83.20
2855;DHT22;1435;49.472;10.940;2022-08-11T07:34:36;20.30;83.00
2855;DHT22;1435;49.472;10.940;2022-08-11T07:39:39;20.40;81.10
2855;DHT22;1435;49.472;10.940;2022-08-11T07:44:46;20.70;81.00
2855;DHT22;1435;49.472;10.940;2022-08-11T07:50:17;20.90;79.70
2855;DHT22;1435;49.472;10.940;2022-08-11T07:55:36;21.10;78.30
2855;DHT22;1435;49.472;10.940;2022-08-11T08:00:44;21.40;76.20
2855;DHT22;1435;49.472;10.940;2022-08-11T08:06:04;21.50;76.80
2855;DHT22;1435;49.472;10.940;2022-08-11T08:11:24;21.70;76.20
2855;DHT22;1435;49.472;10.940;2022-08-11T08:16:45;21.90;73.80
2855;DHT22;1435;49.472;10.940;2022-08-11T08:22:05;22.10;72.60
2855;DHT22;1435;49.472;10.940;2022-08-11T08:27:08;22.30;70.60
2855;DHT22;1435;49.472;10.940;2022-08-11T08:32:14;22.50;69.50
2855;DHT22;1435;49.472;10.940;2022-08-11T08:37:18;22.60;68.50
2855;DHT22;1435;49.472;10.940;2022-08-11T08:42:24;22.70;66.90
2855;DHT22;1435;49.472;10.940;2022-08-11T08:47:29;22.80;64.80
2855;DHT22;1435;49.472;10.940;2022-08-11T08:52:36;23.00;63.90
2855;DHT22;1435;49.472;10.940;2022-08-11T08:57:41;23.10;63.90
2855;DHT22;1435;49.472;10.940;2022-08-11T09:02:45;23.20;61.90
2855;DHT22;1435;49.472;10.940;2022-08-11T09:07:49;23.40;61.80
2855;DHT22;1435;49.472;10.940;2022-08-11T09:12:52;23.50;61.10
2855;DHT22;1435;49.472;10.940;2022-08-11T09:17:59;23.60;60.90
2855;DHT22;1435;49.472;10.940;2022-08-11T09:23:07;23.60;61.30
2855;DHT22;1435;49.472;10.940;2022-08-11T09:28:27;23.70;61.60
2855;DHT22;1435;49.472;10.940;2022-08-11T09:33:32;24.00;58.90
2855;DHT22;1435;49.472;10.940;2022-08-11T09:38:35;24.10;58.70
2855;DHT22;1435;49.472;10.940;2022-08-11T09:43:55;24.10;58.80
2855;DHT22;1435;49.472;10.940;2022-08-11T09:49:18;24.30;58.80
2855;DHT22;1435;49.472;10.940;2022-08-11T09:54:22;24.30;57.70
2855;DHT22;1435;49.472;10.940;2022-08-11T09:59:25;24.40;57.80
2855;DHT22;1435;49.472;10.940;2022-08-11T10:04:34;24.50;57.20
2855;DHT22;1435;49.472;10.940;2022-08-11T10:09:38;24.60;57.30
2855;DHT22;1435;49.472;10.940;2022-08-11T10:14:43;24.60;56.80
2855;DHT22;1435;49.472;10.940;2022-08-11T10:20:06;24.70;54.70
2855;DHT22;1435;49.472;10.940;2022-08-11T10:25:09;24.80;55.80
2855;DHT22;1435;49.472;10.940;2022-08-11T10:30:30;24.80;55.30
2855;DHT22;1435;49.472;10.940;2022-08-11T10:35:51;24.90;54.70
2855;DHT22;1435;49.472;10.940;2022-08-11T10:40:54;25.00;53.70
2855;DHT22;1435;49.472;10.940;2022-08-11T10:46:10;25.00;52.90
2855;DHT22;1435;49.472;10.940;2022-08-11T10:51:31;25.20;52.50
2855;DHT22;1435;49.472;10.940;2022-08-11T10:56:52;25.10;52.70
2855;DHT22;1435;49.472;10.940;2022-08-11T11:02:13;25.20;53.60
2855;DHT22;1435;49.472;10.940;2022-08-11T11:07:20;25.20;53.30
2855;DHT22;1435;49.472;10.940;2022-08-11T11:12:26;25.30;53.50
2855;DHT22;1435;49.472;10.940;2022-08-11T11:17:51;25.50;54.10
2855;DHT22;1435;49.472;10.940;2022-08-11T11:23:10;25.50;51.90
2855;DHT22;1435;49.472;10.940;2022-08-11T11:28:24;25.60;52.80
2855;DHT22;1435;49.472;10.940;2022-08-11T11:33:40;25.70;52.00
2855;DHT22;1435;49.472;10.940;2022-08-11T11:38:48;25.80;52.20
2855;DHT22;1435;49.472;10.940;2022-08-11T11:43:50;25.90;50.90
2855;DHT22;1435;49.472;10.940;2022-08-11T11:48:53;26.00;50.30
2855;DHT22;1435;49.472;10.940;2022-08-11T11:53:56;26.00;49.20
2855;DHT22;1435;49.472;10.940;2022-08-11T11:58:58;26.10;49.20
2855;DHT22;1435;49.472;10.940;2022-08-11T12:04:19;26.20;49.40
2855;DHT22;1435;49.472;10.940;2022-08-11T12:09:22;26.30;48.60
2855;DHT22;1435;49.472;10.940;2022-08-11T12:14:23;26.40;49.10
2855;DHT22;1435;49.472;10.940;2022-08-11T12:19:30;26.50;48.20
2855;DHT22;1435;49.472;10.940;2022-08-11T12:24:34;26.50;48.70
2855;DHT22;1435;49.472;10.940;2022-08-11T12:29:55;26.60;49.20
2855;DHT22;1435;49.472;10.940;2022-08-11T12:34:58;26.70;48.40
2855;DHT22;1435;49.472;10.940;2022-08-11T12:40:04;26.80;48.80
2855;DHT22;1435;49.472;10.940;2022-08-11T12:45:25;26.80;47.10
2855;DHT22;1435;49.472;10.940;2022-08-11T12:50:28;26.90;47.30
2855;DHT22;1435;49.472;10.940;2022-08-11T12:55:52;27.00;46.50
2855;DHT22;1435;49.472;10.940;2022-08-11T13:01:12;27.10;46.30
2855;DHT22;1435;49.472;10.940;2022-08-11T13:06:31;27.30;47.80
2855;DHT22;1435;49.472;10.940;2022-08-11T13:11:35;27.40;46.80
2855;DHT22;1435;49.472;10.940;2022-08-11T13:16:57;27.50;46.00
2855;DHT22;1435;49.472;10.940;2022-08-11T13:22:17;27.60;45.60
2855;DHT22;1435;49.472;10.940;2022-08-11T13:27:21;27.60;46.70
2855;DHT22;1435;49.472;10.940;2022-08-11T13:32:24;27.70;45.30
2855;DHT22;1435;49.472;10.940;2022-08-11T13:37:29;27.90;46.20
2855;DHT22;1435;49.472;10.940;2022-08-11T13:42:32;27.90;44.40
2855;DHT22;1435;49.472;10.940;2022-08-11T13:47:35;28.00;44.10
2855;DHT22;1435;49.472;10.940;2022-08-11T13:52:38;28.10;43.40
2855;DHT22;1435;49.472;10.940;2022-08-11T13:57:41;28.20;44.40
2855;DHT22;1435;49.472;10.940;2022-08-11T14:02:44;28.30;44.50
2855;DHT22;1435;49.472;10.940;2022-08-11T14:07:51;28.40;43.60
2855;DHT22;1435;49.472;10.940;2022-08-11T14:12:59;28.50;44.00
2855;DHT22;1435;49.472;10.940;2022-08-11T14:18:21;28.50;42.90
2855;DHT22;1435;49.472;10.940;2022-08-11T14:23:26;28.60;43.60
2855;DHT22;1435;49.472;10.940;2022-08-11T14:28:32;28.60;43.90
2855;DHT22;1435;49.472;10.940;2022-08-11T14:33:35;28.70;43.90
2855;DHT22;1435;49.472;10.940;2022-08-11T14:38:38;28.80;43.50
2855;DHT22;1435;49.472;10.940;2022-08-11T14:43:42;28.80;43.70
2855;DHT22;1435;49.472;10.940;2022-08-11T14:49:02;28.90;44.10
2855;DHT22;1435;49.472;10.940;2022-08-11T14:54:04;28.90;44.00
2855;DHT22;1435;49.472;10.940;2022-08-11T14:59:21;29.00;43.40
2855;DHT22;1435;49.472;10.940;2022-08-11T15:04:24;29.00;43.10
2855;DHT22;1435;49.472;10.940;2022-08-11T15:09:26;29.10;43.20
2855;DHT22;1435;49.472;10.940;2022-08-11T15:14:29;29.30;42.70
2855;DHT22;1435;49.472;10.940;2022-08-11T15:19:49;29.40;41.70
2855;DHT22;1435;49.472;10.940;2022-08-11T15:25:10;29.50;41.80
2855;DHT22;1435;49.472;10.940;2022-08-11T15:30:13;29.70;41.80
2855;DHT22;1435;49.472;10.940;2022-08-11T15:35:34;29.80;41.70
2855;DHT22;1435;49.472;10.940;2022-08-11T15:40:55;30.00;41.00
2855;DHT22;1435;49.472;10.940;2022-08-11T15:46:20;30.10;41.20
2855;DHT22;1435;49.472;10.940;2022-08-11T15:51:28;30.10;40.80
2855;DHT22;1435;49.472;10.940;2022-08-11T15:56:31;30.20;41.00
2855;DHT22;1435;49.472;10.940;2022-08-11T16:01:36;30.30;40.90
2855;DHT22;1435;49.472;10.940;2022-08-11T16:07:00;30.30;40.60
2855;DHT22;1435;49.472;10.940;2022-08-11T16:12:05;30.40;41.00
2855;DHT22;1435;49.472;10.940;2022-08-11T16:17:11;30.40;40.80
2855;DHT22;1435;49.472;10.940;2022-08-11T16:22:20;30.50;41.00
2855;DHT22;1435;49.472;10.940;2022-08-11T16:27:29;30.90;40.70
2855;DHT22;1435;49.472;10.940;2022-08-11T16:32:37;31.50;40.10
2855;DHT22;1435;49.472;10.940;2022-08-11T16:37:40;32.00;39.60
2855;DHT22;1435;49.472;10.940;2022-08-11T16:43:04;32.30;39.20
2855;DHT22;1435;49.472;10.940;2022-08-11T16:48:29;32.30;39.10
2855;DHT22;1435;49.472;10.940;2022-08-11T16:53:31;32.10;39.30
2855;DHT22;1435;49.472;10.940;2022-08-11T16:58:34;32.00;39.50
2855;DHT22;1435;49.472;10.940;2022-08-11T17:03:59;31.90;39.60
2855;DHT22;1435;49.472;10.940;2022-08-11T17:09:22;31.70;39.60
2855;DHT22;1435;49.472;10.940;2022-08-11T17:14:47;31.50;39.80
2855;DHT22;1435;49.472;10.940;2022-08-11T17:19:53;31.40;40.10
2855;DHT22;1435;49.472;10.940;2022-08-11T17:24:57;31.30;40.60
2855;DHT22;1435;49.472;10.940;2022-08-11T17:30:02;31.30;40.80
2855;DHT22;1435;49.472;10.940;2022-08-11T17:35:08;31.30;40.80
2855;DHT22;1435;49.472;10.940;2022-08-11T17:40:41;31.20;40.90
2855;DHT22;1435;49.472;10.940;2022-08-11T17:46:04;31.20;41.40
2855;DHT22;1435;49.472;10.940;2022-08-11T17:51:25;31.10;41.20
2855;DHT22;1435;49.472;10.940;2022-08-11T17:56:45;31.10;41.20
2855;DHT22;1435;49.472;10.940;2022-08-11T18:02:06;30.90;41.30
2855;DHT22;1435;49.472;10.940;2022-08-11T18:07:27;30.80;41.80
2855;DHT22;1435;49.472;10.940;2022-08-11T18:12:47;30.50;42.10
2855;DHT22;1435;49.472;10.940;2022-08-11T18:18:07;30.30;42.70
2855;DHT22;1435;49.472;10.940;2022-08-11T18:23:30;30.10;43.00
2855;DHT22;1435;49.472;10.940;2022-08-11T18:28:53;29.90;43.30
2855;DHT22;1435;49.472;10.940;2022-08-11T18:34:15;29.60;43.10
2855;DHT22;1435;49.472;10.940;2022-08-11T18:39:44;29.40;43.10
2855;DHT22;1435;49.472;10.940;2022-08-11T18:45:09;29.20;43.70
2855;DHT22;1435;49.472;10.940;2022-08-11T18:50:30;29.00;43.70
2855;DHT22;1435;49.472;10.940;2022-08-11T18:55:51;28.90;43.80
2855;DHT22;1435;49.472;10.940;2022-08-11T19:01:12;28.80;44.10
2855;DHT22;1435;49.472;10.940;2022-08-11T19:06:33;28.70;44.60
2855;DHT22;1435;49.472;10.940;2022-08-11T19:11:55;28.60;45.30
2855;DHT22;1435;49.472;10.940;2022-08-11T19:17:18;28.50;46.60
2855;DHT22;1435;49.472;10.940;2022-08-11T19:22:38;28.20;47.70
2855;DHT22;1435;49.472;10.940;2022-08-11T19:28:00;27.80;48.00
2855;DHT22;1435;49.472;10.940;2022-08-11T19:33:22;27.50;48.50
2855;DHT22;1435;49.472;10.940;2022-08-11T19:38:43;27.20;48.80
2855;DHT22;1435;49.472;10.940;2022-08-11T19:44:04;27.00;49.20
2855;DHT22;1435;49.472;10.940;2022-08-11T19:49:24;26.70;49.50
2855;DHT22;1435;49.472;10.940;2022-08-11T19:54:45;26.40;49.90
2855;DHT22;1435;49.472;10.940;2022-08-11T20:00:09;26.10;50.80
2855;DHT22;1435;49.472;10.940;2022-08-11T20:05:29;26.00;50.90
2855;DHT22;1435;49.472;10.940;2022-08-11T20:10:49;25.70;51.80
2855;DHT22;1435;49.472;10.940;2022-08-11T20:16:13;25.50;52.40
2855;DHT22;1435;49.472;10.940;2022-08-11T20:21:34;25.30;52.20
2855;DHT22;1435;49.472;10.940;2022-08-11T20:26:55;25.10;52.30
2855;DHT22;1435;49.472;10.940;2022-08-11T20:32:17;25.00;51.80
2855;DHT22;1435;49.472;10.940;2022-08-11T20:37:36;24.80;51.50
2855;DHT22;1435;49.472;10.940;2022-08-11T20:42:58;24.80;51.70
2855;DHT22;1435;49.472;10.940;2022-08-11T20:48:21;24.80;51.80
2855;DHT22;1435;49.472;10.940;2022-08-11T20:53:42;24.80;51.90
2855;DHT22;1435;49.472;10.940;2022-08-11T20:58:43;24.80;52.00
2855;DHT22;1435;49.472;10.940;2022-08-11T21:04:04;24.80;52.00
2855;DHT22;1435;49.472;10.940;2022-08-11T21:09:25;24.80;52.10
2855;DHT22;1435;49.472;10.940;2022-08-11T21:14:46;24.70;52.20
2855;DHT22;1435;49.472;10.940;2022-08-11T21:20:09;24.70;52.50
2855;DHT22;1435;49.472;10.940;2022-08-11T21:25:33;24.70;52.60
2855;DHT22;1435;49.472;10.940;2022-08-11T21:30:54;24.60;52.60
2855;DHT22;1435;49.472;10.940;2022-08-11T21:36:16;24.60;52.70
2855;DHT22;1435;49.472;10.940;2022-08-11T21:41:37;24.60;52.90
2855;DHT22;1435;49.472;10.940;2022-08-11T21:46:57;24.50;53.00
2855;DHT22;1435;49.472;10.940;2022-08-11T21:52:19;24.40;53.30
2855;DHT22;1435;49.472;10.940;2022-08-11T21:57:39;24.40;53.40
2855;DHT22;1435;49.472;10.940;2022-08-11T22:02:59;24.40;53.80
2855;DHT22;1435;49.472;10.940;2022-08-11T22:08:20;24.30;54.60
2855;DHT22;1435;49.472;10.940;2022-08-11T22:13:40;24.10;55.40
2855;DHT22;1435;49.472;10.940;2022-08-11T22:19:00;23.90;55.40
2855;DHT22;1435;49.472;10.940;2022-08-11T22:24:24;23.70;55.70
2855;DHT22;1435;49.472;10.940;2022-08-11T22:34:45;23.20;56.30
2855;DHT22;1435;49.472;10.940;2022-08-11T22:40:09;23.10;56.80
2855;DHT22;1435;49.472;10.940;2022-08-11T22:45:29;22.90;56.60
2855;DHT22;1435;49.472;10.940;2022-08-11T22:50:48;22.70;57.00
2855;DHT22;1435;49.472;10.940;2022-08-11T22:56:09;22.50;57.20
2855;DHT22;1435;49.472;10.940;2022-08-11T23:01:28;22.40;57.60
2855;DHT22;1435;49.472;10.940;2022-08-11T23:06:48;22.20;57.90
2855;DHT22;1435;49.472;10.940;2022-08-11T23:12:11;22.00;58.00
2855;DHT22;1435;49.472;10.940;2022-08-11T23:17:31;21.80;58.50
2855;DHT22;1435;49.472;10.940;2022-08-11T23:22:51;21.70;58.80
2855;DHT22;1435;49.472;10.940;2022-08-11T23:28:13;21.60;59.00
2855;DHT22;1435;49.472;10.940;2022-08-11T23:33:33;21.50;59.40
2855;DHT22;1435;49.472;10.940;2022-08-11T23:38:56;21.30;59.70
2855;DHT22;1435;49.472;10.940;2022-08-11T23:44:17;21.10;60.00
2855;DHT22;1435;49.472;10.940;2022-08-11T23:49:37;20.90;60.50
2855;DHT22;1435;49.472;10.940;2022-08-11T23:54:57;20.70;61.10
